Swanbourne, Australia
Current Conditions -  °F | °C
As of 11:30 AM on Wednesday 22 Oct 2014 (Local Time) from YPJT Reporting Station
Clear Clear  
Wind Chill: 86°   Ceiling: Unl
Heat Index: 86°   Visibility: 6mi
Dew Point: 50°   Wind: 18mph
Humidity: 29%   Direction: 50°NE
Pressure: 29.88"   Gusts: NA
Location:  31.98°S, 115.77°E
Report Text: YPJT 220330Z AUTO 05016KT 9999 // NCD 30/10 Q1012
Loading
Personal Weather Stations






























Interactive Weather Map
Tropical Storm Tracking
New forecast layout! Learn more

10-Day Weather Forecast

Advertisements
Track Severe Weather on mobile